createdAt,value
2018-02-22T00:00:30.794Z,15.57
2018-02-22T00:03:00.145Z,16.50
2018-02-22T00:05:29.577Z,15.80
2018-02-22T00:07:58.545Z,15.70
2018-02-22T00:10:28.318Z,14.93
2018-02-22T00:12:57.709Z,14.20
2018-02-22T00:15:26.663Z,15.83
2018-02-22T00:17:56.389Z,15.10
2018-02-22T00:20:25.412Z,16.30
2018-02-22T00:22:54.369Z,17.23
2018-02-22T00:25:23.801Z,16.50
2018-02-22T00:27:53.548Z,16.03
2018-02-22T00:30:22.559Z,17.07
2018-02-22T00:32:51.509Z,16.13
2018-02-22T00:35:20.520Z,16.33
2018-02-22T00:37:49.472Z,16.53
2018-02-22T00:40:18.531Z,16.53
2018-02-22T00:42:48.284Z,16.40
2018-02-22T00:45:17.843Z,14.77
2018-02-22T00:47:47.829Z,15.97
2018-02-22T00:50:16.818Z,16.87
2018-02-22T00:52:46.156Z,16.03
2018-02-22T00:55:16.302Z,16.43
2018-02-22T00:57:45.668Z,15.33
2018-02-22T01:00:14.661Z,16.20
2018-02-22T01:02:44.384Z,15.90
2018-02-22T01:05:13.354Z,17.83
2018-02-22T01:07:43.105Z,16.40
2018-02-22T01:10:13.208Z,17.20
2018-02-22T01:12:42.158Z,16.77
2018-02-22T01:15:11.298Z,15.70
2018-02-22T01:17:40.663Z,16.37
2018-02-22T01:20:09.617Z,16.60
2018-02-22T01:22:38.616Z,15.83
2018-02-22T01:25:07.695Z,16.13
2018-02-22T01:27:36.672Z,14.77
2018-02-22T01:30:05.976Z,15.70
2018-02-22T01:32:34.956Z,15.83
2018-02-22T01:35:04.674Z,15.83
2018-02-22T01:37:33.660Z,14.17
2018-02-22T01:40:02.617Z,16.03
2018-02-22T01:42:32.073Z,16.40
2018-02-22T01:45:01.054Z,15.90
2018-02-22T01:47:30.758Z,14.50
2018-02-22T01:49:59.765Z,16.17
2018-02-22T01:52:28.753Z,16.30
2018-02-22T01:54:58.463Z,16.47
2018-02-22T01:57:27.440Z,16.60
2018-02-22T01:59:57.178Z,14.93
2018-02-22T02:02:26.226Z,18.00
2018-02-22T02:04:56.046Z,17.67
2018-02-22T02:07:25.405Z,15.10
2018-02-22T02:09:54.486Z,15.97
2018-02-22T02:12:23.454Z,15.50
2018-02-22T02:14:52.833Z,18.03
2018-02-22T02:17:22.562Z,14.33
2018-02-22T02:19:51.639Z,15.90
2018-02-22T02:22:21.450Z,16.77
2018-02-22T02:24:50.766Z,16.00
2018-02-22T02:27:20.504Z,16.67
2018-02-22T02:29:49.600Z,15.10
2018-02-22T02:32:18.584Z,18.47
2018-02-22T02:34:47.727Z,17.37
2018-02-22T02:37:17.200Z,16.30
2018-02-22T02:39:46.244Z,17.50
2018-02-22T02:42:15.986Z,16.67
2018-02-22T02:44:44.988Z,17.13
2018-02-22T02:47:14.743Z,17.00
2018-02-22T02:49:43.747Z,17.33
2018-02-22T02:52:12.717Z,15.90
2018-02-22T02:54:41.775Z,17.57
2018-02-22T02:57:11.515Z,16.17
2018-02-22T02:59:40.466Z,19.43
2018-02-22T03:02:09.859Z,17.37
2018-02-22T03:04:39.208Z,18.10
2018-02-22T03:07:08.230Z,20.50
2018-02-22T03:09:37.191Z,17.80
2018-02-22T03:12:06.144Z,18.77
2018-02-22T03:14:35.097Z,17.87
2018-02-22T03:17:04.844Z,17.90
2018-02-22T03:19:34.573Z,18.37
2018-02-22T03:22:03.615Z,17.23
2018-02-22T03:24:32.578Z,17.63
2018-02-22T03:27:01.539Z,19.37
2018-02-22T03:32:40.549Z,17.50
2018-02-22T03:35:11.236Z,17.87
2018-02-22T03:37:40.606Z,16.33
2018-02-22T03:40:09.566Z,18.20
2018-02-22T03:42:39.332Z,18.33
2018-02-22T03:45:08.287Z,16.40
2018-02-22T03:47:37.480Z,17.97
2018-02-22T03:50:06.448Z,16.93
2018-02-22T03:52:35.478Z,18.40
2018-02-22T03:55:05.189Z,17.47
2018-02-22T03:57:34.578Z,21.03
2018-02-22T04:00:03.527Z,19.43
2018-02-22T04:02:32.509Z,16.47
2018-02-22T04:05:01.546Z,19.20
2018-02-22T04:07:31.262Z,18.67
2018-02-22T04:10:00.263Z,18.93
2018-02-22T04:12:30.364Z,18.30
2018-02-22T04:14:59.755Z,17.90
2018-02-22T04:17:29.483Z,18.47
2018-02-22T04:19:59.234Z,17.47
2018-02-22T04:22:28.590Z,18.63
2018-02-22T04:24:58.329Z,18.73
2018-02-22T04:27:28.454Z,18.07
2018-02-22T04:29:57.425Z,17.50
2018-02-22T04:32:26.377Z,20.23
2018-02-22T04:34:55.413Z,17.00
2018-02-22T04:37:24.770Z,16.83
2018-02-22T04:39:53.782Z,19.40
2018-02-22T04:42:23.525Z,20.43
2018-02-22T04:44:52.475Z,17.07
2018-02-22T04:47:21.429Z,18.10
2018-02-22T04:49:50.779Z,18.57
2018-02-22T04:52:20.709Z,19.10
2018-02-22T04:54:49.664Z,20.37
2018-02-22T04:57:18.666Z,18.80
2018-02-22T04:59:47.638Z,18.20
2018-02-22T05:02:16.592Z,21.57
2018-02-22T05:04:45.572Z,19.97
2018-02-22T05:07:14.574Z,18.47
2018-02-22T05:09:44.689Z,19.80
2018-02-22T05:12:13.757Z,18.93
2018-02-22T05:14:42.708Z,21.37
2018-02-22T05:17:11.701Z,21.00
2018-02-22T05:19:40.665Z,18.90
2018-02-22T05:22:10.052Z,19.20
2018-02-22T05:24:39.031Z,17.37
2018-02-22T05:27:08.810Z,20.60
2018-02-22T05:29:38.151Z,20.30
2018-02-22T05:32:07.146Z,19.97
2018-02-22T05:34:36.563Z,19.80
2018-02-22T05:37:05.592Z,20.77
2018-02-22T05:39:34.672Z,19.97
2018-02-22T05:42:03.630Z,20.67
2018-02-22T05:44:33.399Z,19.53
2018-02-22T05:47:02.742Z,22.13
2018-02-22T05:49:31.716Z,21.33
2018-02-22T05:52:01.443Z,20.70
2018-02-22T05:54:30.449Z,19.93
2018-02-22T05:56:59.407Z,18.13
2018-02-22T05:59:29.162Z,27.27
2018-02-22T06:01:58.512Z,23.87
2018-02-22T06:04:27.901Z,21.13
2018-02-22T06:06:57.255Z,22.13
2018-02-22T06:09:26.215Z,20.07
2018-02-22T06:11:56.160Z,20.70
2018-02-22T06:14:25.204Z,21.10
2018-02-22T06:16:54.557Z,22.20
2018-02-22T06:19:23.616Z,20.37
2018-02-22T06:21:52.597Z,21.67
2018-02-22T06:24:21.549Z,21.87
2018-02-22T06:26:50.493Z,22.00
2018-02-22T06:29:20.264Z,21.30
2018-02-22T06:31:49.655Z,19.97
2018-02-22T06:34:18.661Z,20.77
2018-02-22T06:36:48.047Z,21.37
2018-02-22T06:39:17.041Z,20.00
2018-02-22T06:41:46.090Z,23.40
2018-02-22T06:44:15.950Z,24.60
2018-02-22T06:46:44.900Z,24.10
2018-02-22T06:49:13.885Z,23.40
2018-02-22T06:51:43.356Z,25.90
2018-02-22T06:54:12.729Z,23.50
2018-02-22T06:56:42.435Z,22.00
2018-02-22T06:59:11.808Z,23.20
2018-02-22T07:01:41.562Z,21.60
2018-02-22T07:04:10.518Z,22.00
2018-02-22T07:06:39.494Z,20.57
2018-02-22T07:09:08.872Z,22.10
2018-02-22T07:11:39.371Z,22.97
2018-02-22T07:14:09.542Z,22.17
2018-02-22T07:16:39.262Z,23.93
2018-02-22T07:19:08.696Z,24.90
2018-02-22T07:21:38.194Z,22.40
2018-02-22T07:24:08.299Z,23.33
2018-02-22T07:26:37.933Z,23.30
2018-02-22T07:29:07.850Z,21.40
2018-02-22T07:31:37.469Z,23.53
2018-02-22T07:34:06.476Z,22.50
2018-02-22T07:36:36.732Z,22.50
2018-02-22T07:39:05.767Z,24.47
2018-02-22T07:41:36.093Z,23.57
2018-02-22T07:44:05.541Z,23.80
2018-02-22T07:46:35.206Z,24.00
2018-02-22T07:49:04.228Z,21.93
2018-02-22T07:51:33.341Z,22.27
2018-02-22T07:54:02.708Z,22.90
2018-02-22T07:56:31.755Z,23.93
2018-02-22T07:59:00.770Z,24.47
2018-02-22T08:01:30.681Z,21.70
2018-02-22T08:04:00.546Z,22.40
2018-02-22T08:06:30.376Z,23.50
2018-02-22T08:08:59.459Z,23.37
2018-02-22T08:11:30.562Z,24.80
2018-02-22T08:13:59.623Z,27.80
2018-02-22T08:16:28.676Z,27.37
2018-02-22T08:18:57.705Z,27.83
2018-02-22T08:21:27.022Z,31.60
2018-02-22T08:23:56.589Z,31.90
2018-02-22T08:26:26.370Z,32.70
2018-02-22T08:28:55.528Z,27.70
2018-02-22T08:31:24.611Z,32.77
2018-02-22T08:33:54.118Z,39.33
2018-02-22T08:36:23.986Z,23.27
2018-02-22T08:38:53.006Z,23.00
2018-02-22T08:41:22.490Z,23.97
2018-02-22T08:43:52.707Z,23.50
2018-02-22T08:46:23.781Z,22.23
2018-02-22T08:48:53.253Z,25.27
2018-02-22T08:51:22.666Z,23.37
2018-02-22T08:53:51.848Z,21.63
2018-02-22T08:56:21.645Z,23.03
2018-02-22T08:58:50.676Z,21.80
2018-02-22T09:01:20.482Z,24.00
2018-02-22T09:03:49.507Z,22.90
2018-02-22T09:06:19.171Z,27.73
2018-02-22T09:08:49.379Z,22.73
2018-02-22T09:11:19.662Z,23.60
2018-02-22T09:13:49.312Z,23.40
2018-02-22T09:16:18.337Z,21.10
2018-02-22T09:18:47.441Z,20.40
2018-02-22T09:21:17.787Z,20.67
2018-02-22T09:23:48.636Z,20.90
2018-02-22T09:26:17.677Z,18.10
2018-02-22T09:28:47.441Z,20.40
2018-02-22T09:31:16.516Z,20.83
2018-02-22T09:33:46.382Z,19.90
2018-02-22T09:36:16.892Z,20.10
2018-02-22T09:38:45.870Z,20.30
2018-02-22T09:41:14.872Z,18.67
2018-02-22T09:43:43.976Z,20.27
2018-02-22T09:46:13.794Z,19.00
2018-02-22T09:48:42.791Z,20.57
2018-02-22T09:51:13.369Z,18.67
2018-02-22T09:53:42.431Z,16.53
2018-02-22T09:56:13.092Z,19.60
2018-02-22T09:58:43.772Z,18.23
2018-02-22T10:01:13.843Z,16.70
2018-02-22T10:03:43.503Z,18.17
2018-02-22T10:06:12.983Z,16.70
2018-02-22T10:08:42.260Z,15.77
2018-02-22T10:11:11.623Z,15.10
2018-02-22T10:13:41.339Z,15.97
2018-02-22T10:16:11.369Z,15.00
2018-02-22T10:18:40.951Z,14.53
2018-02-22T10:21:10.966Z,15.13
2018-02-22T10:23:40.081Z,13.93
2018-02-22T10:26:10.481Z,14.97
2018-02-22T10:28:40.280Z,15.40
2018-02-22T10:31:09.350Z,14.03
2018-02-22T10:33:38.335Z,14.33
2018-02-22T10:36:07.537Z,14.83
2018-02-22T10:38:36.546Z,14.50
2018-02-22T10:41:06.394Z,15.73
2018-02-22T10:43:35.820Z,16.13
2018-02-22T10:46:04.797Z,16.30
2018-02-22T10:48:34.160Z,13.10
2018-02-22T10:51:04.270Z,15.20
2018-02-22T10:53:34.011Z,14.90
2018-02-22T10:56:03.751Z,13.90
2018-02-22T10:58:32.737Z,15.30
2018-02-22T11:01:08.188Z,14.67
2018-02-22T11:03:37.134Z,15.20
2018-02-22T11:06:06.113Z,14.67
2018-02-22T11:08:35.866Z,14.17
2018-02-22T11:11:05.598Z,15.17
2018-02-22T11:13:34.581Z,15.30
2018-02-22T11:16:03.550Z,14.40
2018-02-22T11:18:32.503Z,14.77
2018-02-22T11:21:02.254Z,14.97
2018-02-22T11:23:32.063Z,13.90
2018-02-22T11:26:01.104Z,14.00
2018-02-22T11:28:30.913Z,13.67
2018-02-22T11:31:01.100Z,14.73
2018-02-22T11:33:30.811Z,14.27
2018-02-22T11:36:00.674Z,15.20
2018-02-22T11:38:30.387Z,14.20
2018-02-22T11:40:59.384Z,12.70
2018-02-22T11:43:28.967Z,15.90
2018-02-22T11:45:58.830Z,15.03
2018-02-22T11:48:28.567Z,14.83
2018-02-22T11:50:57.535Z,15.30
2018-02-22T11:53:27.341Z,15.47
2018-02-22T11:55:56.389Z,15.47
2018-02-22T11:58:25.829Z,14.97
2018-02-22T12:00:56.318Z,15.43
2018-02-22T12:03:25.353Z,17.10
2018-02-22T12:05:55.476Z,14.63
2018-02-22T12:08:25.291Z,15.10
2018-02-22T12:10:54.693Z,15.20
2018-02-22T12:13:25.232Z,16.00
2018-02-22T12:15:55.030Z,15.60
2018-02-22T12:18:24.826Z,15.73
2018-02-22T12:20:55.406Z,15.23
2018-02-22T12:23:24.413Z,14.93
2018-02-22T12:25:53.803Z,14.20
2018-02-22T12:28:22.853Z,14.63
2018-02-22T12:30:52.726Z,15.77
2018-02-22T12:33:23.489Z,14.67
2018-02-22T12:35:52.989Z,15.53
2018-02-22T12:38:22.710Z,14.97
2018-02-22T12:40:51.791Z,14.27
2018-02-22T12:43:21.238Z,13.00
2018-02-22T12:45:50.584Z,14.17
2018-02-22T12:48:19.656Z,13.53
2018-02-22T12:50:48.663Z,13.87
2018-02-22T12:53:18.943Z,15.60
2018-02-22T12:55:48.822Z,13.47
2018-02-22T12:58:19.308Z,14.00
2018-02-22T13:00:48.290Z,15.10
2018-02-22T13:03:17.438Z,14.40
2018-02-22T13:05:47.258Z,13.70
2018-02-22T13:08:16.280Z,14.67
2018-02-22T13:10:45.284Z,14.23
2018-02-22T13:13:14.425Z,13.33
2018-02-22T13:15:44.278Z,14.37
2018-02-22T13:18:14.739Z,13.87
2018-02-22T13:20:43.790Z,13.03
2018-02-22T13:23:12.821Z,14.27
2018-02-22T13:25:42.520Z,13.17
2018-02-22T13:28:11.505Z,14.13
2018-02-22T13:30:40.853Z,13.80
2018-02-22T13:33:21.615Z,14.07
2018-02-22T13:35:50.960Z,13.23
2018-02-22T13:38:32.528Z,12.17
2018-02-22T13:41:02.355Z,12.70
2018-02-22T13:43:32.085Z,13.73
2018-02-22T13:46:01.032Z,13.30
2018-02-22T13:48:42.732Z,11.93
2018-02-22T13:51:14.241Z,13.77
2018-02-22T13:53:43.240Z,13.00
2018-02-22T13:56:24.362Z,12.87
2018-02-22T13:58:54.106Z,11.57
2018-02-22T14:01:46.207Z,12.00
2018-02-22T14:04:15.138Z,12.30
2018-02-22T14:06:44.566Z,12.27
2018-02-22T14:09:13.537Z,11.70
2018-02-22T14:11:43.097Z,13.50
2018-02-22T14:14:12.469Z,13.53
2018-02-22T14:16:41.438Z,13.03
2018-02-22T14:19:10.808Z,12.80
2018-02-22T14:21:39.776Z,12.40
2018-02-22T14:24:09.505Z,12.33
2018-02-22T14:26:38.501Z,12.37
2018-02-22T14:29:07.525Z,11.77
2018-02-22T14:31:36.493Z,12.23
2018-02-22T14:34:06.241Z,14.10
2018-02-22T14:36:35.261Z,12.20
2018-02-22T14:39:04.236Z,10.63
2018-02-22T14:41:33.232Z,12.07
2018-02-22T14:44:02.225Z,11.53
2018-02-22T14:46:31.146Z,10.83
2018-02-22T14:49:00.512Z,10.80
2018-02-22T14:51:29.465Z,10.30
2018-02-22T14:53:58.855Z,10.83
2018-02-22T14:56:27.852Z,10.93
2018-02-22T14:58:57.560Z,10.87
2018-02-22T15:01:26.929Z,10.80
2018-02-22T15:03:55.893Z,9.80
2018-02-22T15:06:24.906Z,10.07
2018-02-22T15:08:53.887Z,9.70
2018-02-22T15:11:23.607Z,7.87
2018-02-22T15:13:54.095Z,8.50
2018-02-22T15:16:23.567Z,8.53
2018-02-22T15:18:52.936Z,8.63
2018-02-22T15:21:22.728Z,7.90
2018-02-22T15:23:51.701Z,8.40
2018-02-22T15:26:20.669Z,7.90
2018-02-22T15:28:50.394Z,9.30
2018-02-22T15:31:19.377Z,8.57
2018-02-22T15:33:48.385Z,9.67
2018-02-22T15:36:18.096Z,8.20
2018-02-22T15:38:47.810Z,9.40
2018-02-22T15:41:16.861Z,10.17
2018-02-22T15:43:45.782Z,9.07
2018-02-22T15:46:14.808Z,10.00
2018-02-22T15:48:45.661Z,9.70
2018-02-22T15:51:15.013Z,9.90
2018-02-22T15:53:44.065Z,9.20
2018-02-22T15:56:13.433Z,9.30
2018-02-22T15:58:42.470Z,10.30
2018-02-22T16:01:12.685Z,10.43
2018-02-22T16:03:42.098Z,9.60
2018-02-22T16:06:11.968Z,9.07
2018-02-22T16:08:41.702Z,9.63
2018-02-22T16:11:12.852Z,8.47
2018-02-22T16:13:41.867Z,9.60
2018-02-22T16:16:11.750Z,9.10
2018-02-22T16:18:41.386Z,9.17
2018-02-22T16:21:11.422Z,8.70
2018-02-22T16:23:41.242Z,9.20
2018-02-22T16:26:10.200Z,9.43
2018-02-22T16:28:40.458Z,11.20
2018-02-22T16:31:09.453Z,11.20
2018-02-22T16:33:38.445Z,12.30
2018-02-22T16:36:07.473Z,11.50
2018-02-22T16:38:36.461Z,11.67
2018-02-22T16:41:06.946Z,11.50
2018-02-22T16:43:36.712Z,12.33
2018-02-22T16:46:05.708Z,13.47
2018-02-22T16:48:34.723Z,12.10
2018-02-22T16:51:05.236Z,12.03
2018-02-22T16:53:35.054Z,13.17
2018-02-22T16:56:04.900Z,12.37
2018-02-22T16:58:33.930Z,12.70
2018-02-22T17:01:03.681Z,15.00
2018-02-22T17:03:33.451Z,12.97
2018-02-22T17:06:02.446Z,15.40
2018-02-22T17:08:31.479Z,13.70
2018-02-22T17:11:00.485Z,14.13
2018-02-22T17:13:29.652Z,13.97
2018-02-22T17:15:58.602Z,16.23
2018-02-22T17:18:28.318Z,14.33
2018-02-22T17:20:57.272Z,17.45
2018-02-22T17:23:27.106Z,16.95
2018-02-22T17:26:01.796Z,16.23
2018-02-22T17:28:37.046Z,15.93
2018-02-22T17:31:11.603Z,14.03
2018-02-22T17:33:40.537Z,14.87
2018-02-22T17:36:12.032Z,16.80
2018-02-22T17:38:51.801Z,16.17
2018-02-22T17:41:37.176Z,17.17
2018-02-22T17:44:06.530Z,15.87
2018-02-22T17:46:35.513Z,16.30
2018-02-22T17:49:04.910Z,16.37
2018-02-22T17:51:34.688Z,16.93
2018-02-22T17:54:03.670Z,16.60
2018-02-22T17:56:32.663Z,16.10
2018-02-22T17:59:01.639Z,15.60
2018-02-22T18:01:30.625Z,16.87
2018-02-22T18:03:59.943Z,15.77
2018-02-22T18:06:29.297Z,17.07
2018-02-22T18:08:59.060Z,17.83
2018-02-22T18:11:28.424Z,18.77
2018-02-22T18:13:57.422Z,17.20
2018-02-22T18:16:26.438Z,17.93
2018-02-22T18:18:55.857Z,18.07
2018-02-22T18:21:26.337Z,17.67
2018-02-22T18:23:55.510Z,18.10
2018-02-22T18:26:24.583Z,17.73
2018-02-22T18:28:54.003Z,18.17
2018-02-22T18:31:23.761Z,18.83
2018-02-22T18:33:52.764Z,17.97
2018-02-22T18:36:22.518Z,16.50
2018-02-22T18:38:57.889Z,18.00
2018-02-22T18:41:27.634Z,17.30
2018-02-22T18:44:03.007Z,18.27
2018-02-22T18:46:32.841Z,18.93
2018-02-22T18:49:01.852Z,20.47
2018-02-22T18:51:30.826Z,16.20
2018-02-22T18:53:59.915Z,20.30
2018-02-22T18:56:29.693Z,18.97
2018-02-22T18:58:59.163Z,19.33
2018-02-22T19:01:28.537Z,20.60
2018-02-22T19:03:57.759Z,19.60
2018-02-22T19:06:27.140Z,20.30
2018-02-22T19:08:56.552Z,19.17
2018-02-22T19:11:25.532Z,19.60
2018-02-22T19:13:54.541Z,20.30
2018-02-22T19:16:25.231Z,22.67
2018-02-22T19:18:55.014Z,20.40
2018-02-22T19:21:24.766Z,20.23
2018-02-22T19:23:55.299Z,24.60
2018-02-22T19:26:25.282Z,23.20
2018-02-22T19:28:56.100Z,31.48
2018-02-22T19:31:25.085Z,23.30
2018-02-22T19:33:54.087Z,23.30
2018-02-22T19:36:23.526Z,20.93
2018-02-22T19:38:52.930Z,22.33
2018-02-22T19:41:22.316Z,23.30
2018-02-22T19:43:51.795Z,20.77
2018-02-22T19:46:21.062Z,21.27
2018-02-22T19:48:50.417Z,23.47
2018-02-22T19:51:20.199Z,22.33
2018-02-22T19:53:50.068Z,22.50
2018-02-22T19:56:20.159Z,22.50
2018-02-22T19:58:49.152Z,26.10
2018-02-22T20:01:18.529Z,22.60
2018-02-22T20:03:48.026Z,22.57
2018-02-22T20:06:17.009Z,20.23
2018-02-22T20:08:46.054Z,22.37
2018-02-22T20:11:15.308Z,21.97
2018-02-22T20:13:44.288Z,22.17
2018-02-22T20:16:14.454Z,22.77
2018-02-22T20:18:44.266Z,24.20
2018-02-22T20:21:14.032Z,22.80
2018-02-22T20:23:43.557Z,22.70
2018-02-22T20:26:13.787Z,26.03
2018-02-22T20:28:42.810Z,22.50
2018-02-22T20:31:12.566Z,23.00
2018-02-22T20:33:41.614Z,23.83
2018-02-22T20:36:11.387Z,25.70
2018-02-22T20:38:40.811Z,23.27
2018-02-22T20:41:09.849Z,23.17
2018-02-22T20:43:39.493Z,24.67
2018-02-22T20:46:08.597Z,23.83
2018-02-22T20:48:38.437Z,24.47
2018-02-22T20:51:09.733Z,26.03
2018-02-22T20:53:43.077Z,22.83
2018-02-22T20:56:12.548Z,27.87
2018-02-22T20:58:41.517Z,27.00
2018-02-22T21:01:10.530Z,26.27
2018-02-22T21:03:50.324Z,25.67
2018-02-22T21:06:20.953Z,26.80
2018-02-22T21:08:50.775Z,24.30
2018-02-22T21:11:20.542Z,25.30
2018-02-22T21:13:50.318Z,26.17
2018-02-22T21:16:20.488Z,26.40
2018-02-22T21:18:49.779Z,28.00
2018-02-22T21:21:19.520Z,26.57
2018-02-22T21:23:49.314Z,26.20
2018-02-22T21:26:19.853Z,26.27
2018-02-22T21:28:49.668Z,24.37
2018-02-22T21:31:19.377Z,27.87
2018-02-22T21:33:48.524Z,28.60
2018-02-22T21:36:17.465Z,25.90
2018-02-22T21:38:46.450Z,24.80
2018-02-22T21:41:16.210Z,24.40
2018-02-22T21:43:45.234Z,26.07
2018-02-22T21:46:14.971Z,25.77
2018-02-22T21:48:44.334Z,28.10
2018-02-22T21:51:13.329Z,26.93
2018-02-22T21:53:42.324Z,26.37
2018-02-22T21:56:11.289Z,27.00
2018-02-22T21:58:40.660Z,26.23
2018-02-22T22:01:10.032Z,25.40
2018-02-22T22:03:39.763Z,28.33
2018-02-22T22:06:09.076Z,29.40
2018-02-22T22:08:38.458Z,27.13
2018-02-22T22:11:08.365Z,25.00
2018-02-22T22:13:37.741Z,26.80
2018-02-22T22:16:06.758Z,25.33
2018-02-22T22:18:35.738Z,25.77
2018-02-22T22:21:04.683Z,26.83
2018-02-22T22:23:33.778Z,27.70
2018-02-22T22:26:05.670Z,27.07
2018-02-22T22:28:34.690Z,27.50
2018-02-22T22:31:03.678Z,25.30
2018-02-22T22:33:33.488Z,25.63
2018-02-22T22:36:02.442Z,26.20
2018-02-22T22:38:31.415Z,25.33
2018-02-22T22:41:01.550Z,25.13
2018-02-22T22:43:30.550Z,26.63
2018-02-22T22:46:00.304Z,25.77
2018-02-22T22:48:29.639Z,24.90
2018-02-22T22:50:58.609Z,27.60
2018-02-22T22:53:27.639Z,25.40
2018-02-22T22:55:56.638Z,24.40
2018-02-22T22:58:25.613Z,26.57
2018-02-22T23:00:55.696Z,27.20
2018-02-22T23:03:24.668Z,25.50
2018-02-22T23:05:54.402Z,26.77
2018-02-22T23:08:23.758Z,24.23
2018-02-22T23:10:53.507Z,25.60
2018-02-22T23:13:23.312Z,24.70
2018-02-22T23:15:52.677Z,24.33
2018-02-22T23:18:21.643Z,23.40
2018-02-22T23:20:50.999Z,24.00
2018-02-22T23:23:20.727Z,24.87
2018-02-22T23:25:49.912Z,24.27
2018-02-22T23:28:19.645Z,23.20
2018-02-22T23:30:48.997Z,24.27
2018-02-22T23:33:18.391Z,23.97
2018-02-22T23:35:48.096Z,25.60
2018-02-22T23:38:17.494Z,25.70
2018-02-22T23:40:49.336Z,25.97
2018-02-22T23:43:18.336Z,24.50
2018-02-22T23:45:47.301Z,25.73
2018-02-22T23:48:16.292Z,22.63
2018-02-22T23:50:45.245Z,24.87
2018-02-22T23:53:14.233Z,24.93
2018-02-22T23:55:43.572Z,25.10
2018-02-22T23:58:12.548Z,21.70
